Etusivu
METAR-TAF:

METAR-TAF

Lentoasemat :

South Wood County Airport (Alexander Field)

Wisconsin Rapids, Wisconsin, Yhdysvallat

Leveyspiiri: 44-21-33N, Pituuspiiri: 089-50-13W, korkeus merenpinnasta: 311 m

Tämänhetkinen sää

Tämä raportti tehtiin 1 tunti ja 5 minuuttia sitten, kello 14.54 UTC
Tuuli 10 kn etelästä/lounaasta puuskistuen 17 kn:hen
Lämpötila 11°C
Kosteus 71%
Ilmanpaine 1006 hPa
Näkyvyys: 16.1 km
selkeää

METAR: KISW 191454Z AUTO 20010G17KT 10SM CLR 11/06 A2972 RMK AO2 SLP068 T01110056 55000

Aika: 10:59 (15:59 UTC)


TAF: puuttuu

Säähavainnot ja -ennusteet yli 4000 lentoasemalta (METAR- ja TAF-raportit).

Käytössä olevat sääasemat on merkitty karttaan keltaisilla ja punaisilla pisteillä.

Aseta hiiri pisteen päälle nähdäksesi sääaseman nimen.

Klikkaa sitten nähdäksesi säähavainnot ja -ennusteet.

Kartan vaihtaminen: klikkaa mustalla rastilla varustettuja vihreitä pisteitä, niin voit zoomata sisään; viivalla varustettua vihreää pistettä, niin voit zoomata ulos tai vihreitä nuolia, niin pääset viereisille kartoille.


METAR-TAF: